Hilltop, Minnesota
Current Conditions -  °F | °C
As of 2:53 AM on Wednesday 28 Jan 2015 (Local Time) from KMIC Reporting Station
Overcast Overcast  
Wind Chill: 20°   Ceiling: 1000
Heat Index: 31°   Visibility: 9mi
Dew Point: 26°   Wind: 15mph
Humidity: 82%   Direction: 150°SSE
Pressure: 30.05"   Gusts: 22mph
Location:  45.0516°N, 93.2549°W
Report Text: KMIC 280853Z AUTO 15013G19KT 9SM OVC010 M01/M03 A3005 RMK AO2 SLP186 T10061033 56017
Loading
Personal Weather Stations






























Interactive Weather Map New forecast layout! Learn more

10-Day Weather Forecast

Advertisements
Track Severe Weather on mobile